sensor_id;sensor_type;location;lat;lon;timestamp;pressure;altitude;pressure_sealevel;temperature;humidity
13952;BME280;39535;52.192;9.886;2023-05-21T00:00:40;100709.94;;;14.49;83.11
13952;BME280;39535;52.192;9.886;2023-05-21T00:03:07;100708.25;;;14.46;82.87
13952;BME280;39535;52.192;9.886;2023-05-21T00:05:37;100701.28;;;14.45;83.27
13952;BME280;39535;52.192;9.886;2023-05-21T00:08:04;100698.69;;;14.44;82.89
13952;BME280;39535;52.192;9.886;2023-05-21T00:10:32;100697.06;;;14.40;83.41
13952;BME280;39535;52.192;9.886;2023-05-21T00:12:58;100695.47;;;14.34;83.73
13952;BME280;39535;52.192;9.886;2023-05-21T00:15:25;100682.53;;;14.28;84.06
13952;BME280;39535;52.192;9.886;2023-05-21T00:17:51;100676.75;;;14.17;84.32
13952;BME280;39535;52.192;9.886;2023-05-21T00:20:18;100666.28;;;14.15;84.60
13952;BME280;39535;52.192;9.886;2023-05-21T00:22:46;100656.56;;;14.19;84.60
13952;BME280;39535;52.192;9.886;2023-05-21T00:25:13;100657.44;;;14.19;84.63
13952;BME280;39535;52.192;9.886;2023-05-21T00:27:41;100658.28;;;14.20;84.34
13952;BME280;39535;52.192;9.886;2023-05-21T00:30:07;100653.88;;;14.20;84.55
13952;BME280;39535;52.192;9.886;2023-05-21T00:32:34;100661.81;;;14.19;84.68
13952;BME280;39535;52.192;9.886;2023-05-21T00:35:00;100649.63;;;14.16;84.67
13952;BME280;39535;52.192;9.886;2023-05-21T00:37:27;100652.41;;;14.12;84.75
13952;BME280;39535;52.192;9.886;2023-05-21T00:39:56;100643.00;;;14.04;85.02
13952;BME280;39535;52.192;9.886;2023-05-21T00:42:23;100643.91;;;14.03;85.04
13952;BME280;39535;52.192;9.886;2023-05-21T00:44:52;100647.25;;;14.08;84.70
13952;BME280;39535;52.192;9.886;2023-05-21T00:47:19;100655.34;;;14.01;84.53
13952;BME280;39535;52.192;9.886;2023-05-21T00:49:47;100643.16;;;14.00;84.78
13952;BME280;39535;52.192;9.886;2023-05-21T00:52:15;100637.19;;;13.93;85.50
13952;BME280;39535;52.192;9.886;2023-05-21T00:54:45;100623.38;;;13.88;86.26
13952;BME280;39535;52.192;9.886;2023-05-21T00:57:12;100619.06;;;13.85;86.16
13952;BME280;39535;52.192;9.886;2023-05-21T00:59:38;100613.09;;;13.80;86.59
13952;BME280;39535;52.192;9.886;2023-05-21T01:02:07;100594.78;;;13.79;86.80
13952;BME280;39535;52.192;9.886;2023-05-21T01:04:34;100593.91;;;13.78;87.16
13952;BME280;39535;52.192;9.886;2023-05-21T01:07:00;100583.56;;;13.74;87.58
13952;BME280;39535;52.192;9.886;2023-05-21T01:09:27;100580.03;;;13.75;87.47
13952;BME280;39535;52.192;9.886;2023-05-21T01:11:54;100581.81;;;13.74;87.05
13952;BME280;39535;52.192;9.886;2023-05-21T01:14:21;100587.00;;;13.76;87.19
13952;BME280;39535;52.192;9.886;2023-05-21T01:16:49;100590.56;;;13.73;87.00
13952;BME280;39535;52.192;9.886;2023-05-21T01:19:19;100591.47;;;13.72;87.26
13952;BME280;39535;52.192;9.886;2023-05-21T01:21:49;100581.16;;;13.66;87.54
13952;BME280;39535;52.192;9.886;2023-05-21T01:24:18;100583.03;;;13.62;87.75
13952;BME280;39535;52.192;9.886;2023-05-21T01:26:45;100582.25;;;13.59;87.82
13952;BME280;39535;52.192;9.886;2023-05-21T01:29:11;100580.44;;;13.61;87.68
13952;BME280;39535;52.192;9.886;2023-05-21T01:31:47;100575.41;;;13.53;88.43
13952;BME280;39535;52.192;9.886;2023-05-21T01:34:17;100570.44;;;13.44;88.92
13952;BME280;39535;52.192;9.886;2023-05-21T01:36:50;100566.03;;;13.46;88.58
13952;BME280;39535;52.192;9.886;2023-05-21T01:39:24;100556.38;;;13.46;88.66
13952;BME280;39535;52.192;9.886;2023-05-21T01:41:53;100550.31;;;13.44;88.52
13952;BME280;39535;52.192;9.886;2023-05-21T01:44:22;100553.88;;;13.42;88.73
13952;BME280;39535;52.192;9.886;2023-05-21T01:46:51;100566.09;;;13.43;88.30
13952;BME280;39535;52.192;9.886;2023-05-21T01:49:18;100564.59;;;13.34;88.73
13952;BME280;39535;52.192;9.886;2023-05-21T01:51:46;100567.25;;;13.33;88.63
13952;BME280;39535;52.192;9.886;2023-05-21T01:54:13;100569.88;;;13.33;88.59
13952;BME280;39535;52.192;9.886;2023-05-21T01:56:41;100581.31;;;13.30;88.44
13952;BME280;39535;52.192;9.886;2023-05-21T01:59:07;100576.00;;;13.31;88.63
13952;BME280;39535;52.192;9.886;2023-05-21T02:01:34;100564.84;;;13.23;89.28
13952;BME280;39535;52.192;9.886;2023-05-21T02:04:00;100571.09;;;13.19;89.33
13952;BME280;39535;52.192;9.886;2023-05-21T02:06:26;100580.84;;;13.14;89.40
13952;BME280;39535;52.192;9.886;2023-05-21T02:08:53;100570.44;;;13.11;89.49
13952;BME280;39535;52.192;9.886;2023-05-21T02:11:20;100574.78;;;13.12;89.61
13952;BME280;39535;52.192;9.886;2023-05-21T02:13:48;100575.63;;;13.14;89.31
13952;BME280;39535;52.192;9.886;2023-05-21T02:16:15;100573.00;;;13.14;89.72
13952;BME280;39535;52.192;9.886;2023-05-21T02:18:41;100567.75;;;13.14;89.84
13952;BME280;39535;52.192;9.886;2023-05-21T02:21:08;100576.47;;;13.15;89.27
13952;BME280;39535;52.192;9.886;2023-05-21T02:23:36;100576.72;;;13.05;89.27
13952;BME280;39535;52.192;9.886;2023-05-21T02:26:02;100576.84;;;13.01;89.72
13952;BME280;39535;52.192;9.886;2023-05-21T02:28:29;100567.25;;;13.00;89.98
13952;BME280;39535;52.192;9.886;2023-05-21T02:30:58;100551.66;;;12.95;90.41
13952;BME280;39535;52.192;9.886;2023-05-21T02:33:24;100551.78;;;12.90;90.45
13952;BME280;39535;52.192;9.886;2023-05-21T02:35:50;100553.53;;;12.90;90.48
13952;BME280;39535;52.192;9.886;2023-05-21T02:38:17;100550.97;;;12.88;90.59
13952;BME280;39535;52.192;9.886;2023-05-21T02:40:47;100558.00;;;12.86;90.37
13952;BME280;39535;52.192;9.886;2023-05-21T02:43:13;100561.38;;;12.90;90.38
13952;BME280;39535;52.192;9.886;2023-05-21T02:45:39;100558.69;;;12.93;89.99
13952;BME280;39535;52.192;9.886;2023-05-21T02:48:07;100562.28;;;12.90;89.95
13952;BME280;39535;52.192;9.886;2023-05-21T02:50:33;100564.00;;;12.90;89.64
13952;BME280;39535;52.192;9.886;2023-05-21T02:53:00;100569.31;;;12.88;89.98
13952;BME280;39535;52.192;9.886;2023-05-21T02:55:26;100562.66;;;12.75;90.74
13952;BME280;39535;52.192;9.886;2023-05-21T02:57:52;100560.09;;;12.74;90.53
13952;BME280;39535;52.192;9.886;2023-05-21T03:00:19;100560.22;;;12.69;90.84
13952;BME280;39535;52.192;9.886;2023-05-21T03:02:45;100561.94;;;12.68;90.49
13952;BME280;39535;52.192;9.886;2023-05-21T03:05:13;100562.81;;;12.69;89.95
13952;BME280;39535;52.192;9.886;2023-05-21T03:07:39;100564.66;;;12.65;90.16
13952;BME280;39535;52.192;9.886;2023-05-21T03:10:07;100560.47;;;12.58;90.85
13952;BME280;39535;52.192;9.886;2023-05-21T03:12:33;100547.47;;;12.55;91.15
13952;BME280;39535;52.192;9.886;2023-05-21T03:14:59;100537.03;;;12.54;91.35
13952;BME280;39535;52.192;9.886;2023-05-21T03:17:26;100539.63;;;12.54;91.25
13952;BME280;39535;52.192;9.886;2023-05-21T03:19:52;100538.16;;;12.43;90.92
13952;BME280;39535;52.192;9.886;2023-05-21T03:22:20;100535.44;;;12.46;91.50
13952;BME280;39535;52.192;9.886;2023-05-21T03:24:46;100539.94;;;12.43;91.03
13952;BME280;39535;52.192;9.886;2023-05-21T03:27:13;100541.75;;;12.39;91.34
13952;BME280;39535;52.192;9.886;2023-05-21T03:29:39;100541.91;;;12.33;91.97
13952;BME280;39535;52.192;9.886;2023-05-21T03:32:07;100521.88;;;12.30;91.69
13952;BME280;39535;52.192;9.886;2023-05-21T03:34:33;100527.03;;;12.35;91.58
13952;BME280;39535;52.192;9.886;2023-05-21T03:37:00;100532.13;;;12.40;91.36
13952;BME280;39535;52.192;9.886;2023-05-21T03:39:27;100534.63;;;12.44;91.41
13952;BME280;39535;52.192;9.886;2023-05-21T03:41:54;100525.03;;;12.45;92.09
13952;BME280;39535;52.192;9.886;2023-05-21T03:44:20;100531.03;;;12.48;91.85
13952;BME280;39535;52.192;9.886;2023-05-21T03:46:46;100518.81;;;12.49;92.37
13952;BME280;39535;52.192;9.886;2023-05-21T03:49:13;100514.41;;;12.51;92.32
13952;BME280;39535;52.192;9.886;2023-05-21T03:51:39;100528.31;;;12.53;92.63
13952;BME280;39535;52.192;9.886;2023-05-21T03:54:05;100523.91;;;12.55;92.70
13952;BME280;39535;52.192;9.886;2023-05-21T03:56:33;100519.38;;;12.60;92.70
13952;BME280;39535;52.192;9.886;2023-05-21T03:58:59;100520.28;;;12.61;92.04
13952;BME280;39535;52.192;9.886;2023-05-21T04:01:26;100528.88;;;12.64;92.37
13952;BME280;39535;52.192;9.886;2023-05-21T04:03:53;100536.69;;;12.66;92.11
13952;BME280;39535;52.192;9.886;2023-05-21T04:06:19;100540.25;;;12.65;91.80
13952;BME280;39535;52.192;9.886;2023-05-21T04:08:45;100541.00;;;12.68;92.24
13952;BME280;39535;52.192;9.886;2023-05-21T04:11:12;100542.72;;;12.69;92.03
13952;BME280;39535;52.192;9.886;2023-05-21T04:13:39;100541.84;;;12.70;92.60
13952;BME280;39535;52.192;9.886;2023-05-21T04:16:06;100545.31;;;12.71;92.22
13952;BME280;39535;52.192;9.886;2023-05-21T04:18:33;100538.34;;;12.70;92.77
13952;BME280;39535;52.192;9.886;2023-05-21T04:20:59;100537.44;;;12.73;92.64
13952;BME280;39535;52.192;9.886;2023-05-21T04:23:26;100532.13;;;12.74;93.02
13952;BME280;39535;52.192;9.886;2023-05-21T04:25:53;100532.88;;;12.79;92.67
13952;BME280;39535;52.192;9.886;2023-05-21T04:28:19;100531.94;;;12.80;92.96
13952;BME280;39535;52.192;9.886;2023-05-21T04:30:47;100537.13;;;12.83;92.86
13952;BME280;39535;52.192;9.886;2023-05-21T04:33:14;100539.59;;;12.88;93.07
13952;BME280;39535;52.192;9.886;2023-05-21T04:35:42;100541.25;;;12.92;92.98
13952;BME280;39535;52.192;9.886;2023-05-21T04:38:09;100537.63;;;12.96;93.52
13952;BME280;39535;52.192;9.886;2023-05-21T04:40:36;100525.31;;;13.00;93.66
13952;BME280;39535;52.192;9.886;2023-05-21T04:43:03;100531.34;;;13.03;93.38
13952;BME280;39535;52.192;9.886;2023-05-21T04:45:29;100539.06;;;13.08;93.44
13952;BME280;39535;52.192;9.886;2023-05-21T04:47:57;100541.63;;;13.11;93.03
13952;BME280;39535;52.192;9.886;2023-05-21T04:50:24;100542.34;;;13.16;92.96
13952;BME280;39535;52.192;9.886;2023-05-21T04:52:50;100544.84;;;13.21;92.96
13952;BME280;39535;52.192;9.886;2023-05-21T04:55:18;100551.72;;;13.25;92.80
13952;BME280;39535;52.192;9.886;2023-05-21T04:57:45;100551.59;;;13.29;92.83
13952;BME280;39535;52.192;9.886;2023-05-21T05:00:12;100546.25;;;13.34;92.50
13952;BME280;39535;52.192;9.886;2023-05-21T05:02:39;100564.50;;;13.37;92.31
13952;BME280;39535;52.192;9.886;2023-05-21T05:05:07;100570.56;;;13.39;91.55
13952;BME280;39535;52.192;9.886;2023-05-21T05:07:33;100573.88;;;13.46;92.47
13952;BME280;39535;52.192;9.886;2023-05-21T05:10:00;100567.69;;;13.48;92.01
13952;BME280;39535;52.192;9.886;2023-05-21T05:12:26;100568.47;;;13.52;92.14
13952;BME280;39535;52.192;9.886;2023-05-21T05:14:52;100568.38;;;13.54;91.87
13952;BME280;39535;52.192;9.886;2023-05-21T05:17:18;100571.78;;;13.57;91.60
13952;BME280;39535;52.192;9.886;2023-05-21T05:19:45;100576.97;;;13.60;91.87
13952;BME280;39535;52.192;9.886;2023-05-21T05:22:12;100585.53;;;13.65;91.81
13952;BME280;39535;52.192;9.886;2023-05-21T05:24:39;100588.09;;;13.68;91.73
13952;BME280;39535;52.192;9.886;2023-05-21T05:27:06;100583.66;;;13.70;91.54
13952;BME280;39535;52.192;9.886;2023-05-21T05:29:32;100588.75;;;13.75;91.25
13952;BME280;39535;52.192;9.886;2023-05-21T05:31:58;100589.47;;;13.80;91.49
13952;BME280;39535;52.192;9.886;2023-05-21T05:34:24;100591.97;;;13.85;91.40
13952;BME280;39535;52.192;9.886;2023-05-21T05:36:51;100595.34;;;13.88;91.10
13952;BME280;39535;52.192;9.886;2023-05-21T05:39:18;100596.97;;;13.93;90.36
13952;BME280;39535;52.192;9.886;2023-05-21T05:41:45;100595.16;;;13.95;90.45
13952;BME280;39535;52.192;9.886;2023-05-21T05:44:11;100593.41;;;13.95;91.25
13952;BME280;39535;52.192;9.886;2023-05-21T05:46:38;100582.00;;;13.96;91.37
13952;BME280;39535;52.192;9.886;2023-05-21T05:49:04;100585.38;;;14.01;91.03
13952;BME280;39535;52.192;9.886;2023-05-21T05:51:31;100589.66;;;14.04;91.11
13952;BME280;39535;52.192;9.886;2023-05-21T05:53:57;100586.91;;;14.07;91.34
13952;BME280;39535;52.192;9.886;2023-05-21T05:56:25;100593.84;;;14.09;90.99
13952;BME280;39535;52.192;9.886;2023-05-21T05:58:51;100594.59;;;14.13;91.36
13952;BME280;39535;52.192;9.886;2023-05-21T06:01:18;100591.88;;;14.16;91.35
13952;BME280;39535;52.192;9.886;2023-05-21T06:03:46;100599.69;;;14.19;91.21
13952;BME280;39535;52.192;9.886;2023-05-21T06:06:13;100599.53;;;14.24;91.11
13952;BME280;39535;52.192;9.886;2023-05-21T06:08:39;100601.09;;;14.29;91.14
13952;BME280;39535;52.192;9.886;2023-05-21T06:11:05;100599.13;;;14.36;91.27
13952;BME280;39535;52.192;9.886;2023-05-21T06:13:33;100601.56;;;14.42;91.06
13952;BME280;39535;52.192;9.886;2023-05-21T06:15:59;100603.97;;;14.48;90.72
13952;BME280;39535;52.192;9.886;2023-05-21T06:18:26;100619.53;;;14.55;90.20
13952;BME280;39535;52.192;9.886;2023-05-21T06:20:52;100621.19;;;14.59;90.67
13952;BME280;39535;52.192;9.886;2023-05-21T06:23:18;100623.69;;;14.63;90.38
13952;BME280;39535;52.192;9.886;2023-05-21T06:25:45;100644.47;;;14.71;89.59
13952;BME280;39535;52.192;9.886;2023-05-21T06:28:11;100646.03;;;14.77;89.50
13952;BME280;39535;52.192;9.886;2023-05-21T06:30:39;100646.56;;;14.86;89.26
13952;BME280;39535;52.192;9.886;2023-05-21T06:33:05;100656.00;;;14.92;88.80
13952;BME280;39535;52.192;9.886;2023-05-21T06:35:32;100656.69;;;14.99;88.39
13952;BME280;39535;52.192;9.886;2023-05-21T06:38:01;100666.28;;;15.00;88.47
13952;BME280;39535;52.192;9.886;2023-05-21T06:40:27;100672.28;;;15.03;88.78
13952;BME280;39535;52.192;9.886;2023-05-21T06:42:53;100671.31;;;15.06;88.25
13952;BME280;39535;52.192;9.886;2023-05-21T06:45:20;100674.66;;;15.11;88.08
13952;BME280;39535;52.192;9.886;2023-05-21T06:47:48;100685.81;;;15.18;87.96
13952;BME280;39535;52.192;9.886;2023-05-21T06:50:15;100689.22;;;15.21;87.69
13952;BME280;39535;52.192;9.886;2023-05-21T06:52:41;100697.91;;;15.23;87.13
13952;BME280;39535;52.192;9.886;2023-05-21T06:55:08;100701.38;;;15.24;87.12
13952;BME280;39535;52.192;9.886;2023-05-21T06:57:36;100701.34;;;15.25;87.30
13952;BME280;39535;52.192;9.886;2023-05-21T07:00:03;100694.22;;;15.29;87.39
13952;BME280;39535;52.192;9.886;2023-05-21T07:02:29;100694.97;;;15.33;87.12
13952;BME280;39535;52.192;9.886;2023-05-21T07:04:57;100697.44;;;15.37;87.28
13952;BME280;39535;52.192;9.886;2023-05-21T07:07:23;100695.44;;;15.44;87.37
13952;BME280;39535;52.192;9.886;2023-05-21T07:09:49;100686.56;;;15.48;87.82
13952;BME280;39535;52.192;9.886;2023-05-21T07:12:16;100697.66;;;15.56;87.17
13952;BME280;39535;52.192;9.886;2023-05-21T07:14:42;100702.69;;;15.62;87.01
13952;BME280;39535;52.192;9.886;2023-05-21T07:17:08;100700.75;;;15.67;87.11
13952;BME280;39535;52.192;9.886;2023-05-21T07:19:35;100704.03;;;15.76;86.81
13952;BME280;39535;52.192;9.886;2023-05-21T07:22:03;100708.03;;;15.86;86.50
13952;BME280;39535;52.192;9.886;2023-05-21T07:24:30;100712.13;;;15.93;85.94
13952;BME280;39535;52.192;9.886;2023-05-21T07:26:57;100713.69;;;15.99;86.11
13952;BME280;39535;52.192;9.886;2023-05-21T07:29:23;100710.81;;;16.05;85.99
13952;BME280;39535;52.192;9.886;2023-05-21T07:31:49;100722.00;;;16.12;85.42
13952;BME280;39535;52.192;9.886;2023-05-21T07:34:16;100733.16;;;16.18;84.96
13952;BME280;39535;52.192;9.886;2023-05-21T07:36:42;100733.84;;;16.23;84.73
13952;BME280;39535;52.192;9.886;2023-05-21T07:39:09;100743.28;;;16.29;84.90
13952;BME280;39535;52.192;9.886;2023-05-21T07:41:36;100742.19;;;16.35;85.00
13952;BME280;39535;52.192;9.886;2023-05-21T07:44:03;100726.16;;;16.41;85.35
13952;BME280;39535;52.192;9.886;2023-05-21T07:46:29;100720.59;;;16.48;85.23
13952;BME280;39535;52.192;9.886;2023-05-21T07:48:56;100749.31;;;16.55;84.40
13952;BME280;39535;52.192;9.886;2023-05-21T07:51:22;100746.59;;;16.58;84.30
13952;BME280;39535;52.192;9.886;2023-05-21T07:53:48;100720.09;;;16.61;85.05
13952;BME280;39535;52.192;9.886;2023-05-21T07:56:16;100734.81;;;16.66;84.54
13952;BME280;39535;52.192;9.886;2023-05-21T07:58:42;100741.63;;;16.72;84.39
13952;BME280;39535;52.192;9.886;2023-05-21T08:01:10;100740.47;;;16.79;84.32
13952;BME280;39535;52.192;9.886;2023-05-21T08:03:36;100748.97;;;16.87;84.00
13952;BME280;39535;52.192;9.886;2023-05-21T08:06:03;100748.72;;;16.94;83.61
13952;BME280;39535;52.192;9.886;2023-05-21T08:08:29;100744.44;;;16.91;84.53
13952;BME280;39535;52.192;9.886;2023-05-21T08:10:56;100737.13;;;16.98;84.26
13952;BME280;39535;52.192;9.886;2023-05-21T08:13:23;100743.91;;;17.03;83.86
13952;BME280;39535;52.192;9.886;2023-05-21T08:15:51;100728.69;;;17.10;84.52
13952;BME280;39535;52.192;9.886;2023-05-21T08:18:17;100747.91;;;17.14;83.59
13952;BME280;39535;52.192;9.886;2023-05-21T08:20:43;100747.63;;;17.20;83.62
13952;BME280;39535;52.192;9.886;2023-05-21T08:23:10;100739.41;;;17.27;83.68
13952;BME280;39535;52.192;9.886;2023-05-21T08:25:36;100746.16;;;17.35;83.59
13952;BME280;39535;52.192;9.886;2023-05-21T08:28:03;100755.38;;;17.45;82.75
13952;BME280;39535;52.192;9.886;2023-05-21T08:30:30;100769.91;;;17.55;82.90
13952;BME280;39535;52.192;9.886;2023-05-21T08:32:57;100769.63;;;17.61;82.91
13952;BME280;39535;52.192;9.886;2023-05-21T08:35:23;100765.75;;;17.70;83.73
13952;BME280;39535;52.192;9.886;2023-05-21T08:37:49;100760.69;;;17.86;83.23
13952;BME280;39535;52.192;9.886;2023-05-21T08:40:16;100770.78;;;17.97;82.11
13952;BME280;39535;52.192;9.886;2023-05-21T08:42:45;100791.34;;;18.09;81.63
13952;BME280;39535;52.192;9.886;2023-05-21T08:45:12;100816.66;;;18.15;80.74
13952;BME280;39535;52.192;9.886;2023-05-21T08:47:42;100820.03;;;18.18;80.44
13952;BME280;39535;52.192;9.886;2023-05-21T08:50:10;100828.59;;;18.23;80.85
13952;BME280;39535;52.192;9.886;2023-05-21T08:52:37;100819.25;;;18.35;80.59
13952;BME280;39535;52.192;9.886;2023-05-21T08:55:04;100827.84;;;18.40;80.62
13952;BME280;39535;52.192;9.886;2023-05-21T08:57:31;100825.63;;;18.50;80.41
13952;BME280;39535;52.192;9.886;2023-05-21T08:59:57;100831.59;;;18.55;80.02
13952;BME280;39535;52.192;9.886;2023-05-21T09:02:24;100833.84;;;18.63;79.90
13952;BME280;39535;52.192;9.886;2023-05-21T09:04:52;100838.22;;;18.64;80.16
13952;BME280;39535;52.192;9.886;2023-05-21T09:07:23;100787.91;;;18.65;81.90
13952;BME280;39535;52.192;9.886;2023-05-21T09:09:54;100807.78;;;18.74;80.15
13952;BME280;39535;52.192;9.886;2023-05-21T09:12:21;100825.13;;;18.81;79.61
13952;BME280;39535;52.192;9.886;2023-05-21T09:14:48;100820.31;;;18.90;80.17
13952;BME280;39535;52.192;9.886;2023-05-21T09:17:15;100820.81;;;18.98;79.76
13952;BME280;39535;52.192;9.886;2023-05-21T09:20:07;100834.75;;;19.01;79.42
13952;BME280;39535;52.192;9.886;2023-05-21T09:22:39;100814.91;;;19.10;79.71
13952;BME280;39535;52.192;9.886;2023-05-21T09:25:07;100832.94;;;19.21;78.72
13952;BME280;39535;52.192;9.886;2023-05-21T09:27:34;100844.19;;;19.24;79.22
13952;BME280;39535;52.192;9.886;2023-05-21T09:30:00;100847.19;;;19.36;78.54
13952;BME280;39535;52.192;9.886;2023-05-21T09:32:27;100859.81;;;19.48;78.25
13952;BME280;39535;52.192;9.886;2023-05-21T09:34:53;100871.59;;;19.60;77.39
13952;BME280;39535;52.192;9.886;2023-05-21T09:37:21;100885.25;;;19.70;77.69
13952;BME280;39535;52.192;9.886;2023-05-21T09:39:47;100870.81;;;19.77;77.44
13952;BME280;39535;52.192;9.886;2023-05-21T09:42:14;100886.06;;;19.89;77.03
13952;BME280;39535;52.192;9.886;2023-05-21T09:44:41;100908.50;;;19.99;76.05
13952;BME280;39535;52.192;9.886;2023-05-21T09:47:08;100907.19;;;20.08;76.16
13952;BME280;39535;52.192;9.886;2023-05-21T09:49:36;100918.19;;;20.18;76.36
13952;BME280;39535;52.192;9.886;2023-05-21T09:52:02;100915.03;;;20.27;75.82
13952;BME280;39535;52.192;9.886;2023-05-21T09:54:32;100928.75;;;20.35;74.89
13952;BME280;39535;52.192;9.886;2023-05-21T09:56:59;100944.28;;;20.43;74.13
13952;BME280;39535;52.192;9.886;2023-05-21T09:59:34;100946.38;;;20.54;74.81
13952;BME280;39535;52.192;9.886;2023-05-21T10:02:01;100932.09;;;20.56;75.21
13952;BME280;39535;52.192;9.886;2023-05-21T10:04:27;100924.53;;;20.66;75.03
13952;BME280;39535;52.192;9.886;2023-05-21T10:06:57;100908.28;;;20.72;75.13
13952;BME280;39535;52.192;9.886;2023-05-21T10:09:26;100932.44;;;20.83;74.32
13952;BME280;39535;52.192;9.886;2023-05-21T10:11:55;100946.09;;;20.93;72.62
13952;BME280;39535;52.192;9.886;2023-05-21T10:14:24;100953.72;;;20.99;73.24
13952;BME280;39535;52.192;9.886;2023-05-21T10:16:53;100976.31;;;21.07;72.49
13952;BME280;39535;52.192;9.886;2023-05-21T10:19:20;100980.19;;;21.17;72.34
13952;BME280;39535;52.192;9.886;2023-05-21T10:21:47;100963.75;;;21.26;73.68
13952;BME280;39535;52.192;9.886;2023-05-21T10:24:15;100962.41;;;21.35;72.99
13952;BME280;39535;52.192;9.886;2023-05-21T10:26:42;100980.66;;;21.41;70.97
13952;BME280;39535;52.192;9.886;2023-05-21T10:29:11;101004.81;;;21.52;70.54
13952;BME280;39535;52.192;9.886;2023-05-21T10:31:39;101011.66;;;21.56;70.67
13952;BME280;39535;52.192;9.886;2023-05-21T10:34:09;101003.47;;;21.61;71.68
13952;BME280;39535;52.192;9.886;2023-05-21T10:36:36;101002.06;;;21.70;70.78
13952;BME280;39535;52.192;9.886;2023-05-21T10:39:04;101022.28;;;21.72;69.97
13952;BME280;39535;52.192;9.886;2023-05-21T10:41:37;101032.94;;;21.72;69.79
13952;BME280;39535;52.192;9.886;2023-05-21T10:44:16;101024.72;;;21.77;70.20
13952;BME280;39535;52.192;9.886;2023-05-21T10:47:12;101027.78;;;21.85;69.70
13952;BME280;39535;52.192;9.886;2023-05-21T10:49:53;101005.06;;;21.95;70.32
13952;BME280;39535;52.192;9.886;2023-05-21T10:52:34;101026.47;;;22.08;69.30
13952;BME280;39535;52.192;9.886;2023-05-21T10:55:16;100971.81;;;22.18;71.16
13952;BME280;39535;52.192;9.886;2023-05-21T10:58:06;100981.38;;;22.37;69.67
13952;BME280;39535;52.192;9.886;2023-05-21T11:00:40;100993.78;;;22.52;67.61
13952;BME280;39535;52.192;9.886;2023-05-21T11:03:09;101054.31;;;22.63;67.11
13952;BME280;39535;52.192;9.886;2023-05-21T11:05:37;101030.66;;;22.73;68.03
13952;BME280;39535;52.192;9.886;2023-05-21T11:08:17;101048.84;;;22.80;66.39
13952;BME280;39535;52.192;9.886;2023-05-21T11:10:50;101086.50;;;22.89;65.63
13952;BME280;39535;52.192;9.886;2023-05-21T11:13:17;101102.09;;;22.95;65.18
13952;BME280;39535;52.192;9.886;2023-05-21T11:16:06;101128.97;;;23.06;64.25
13952;BME280;39535;52.192;9.886;2023-05-21T11:18:58;101145.25;;;23.16;63.58
13952;BME280;39535;52.192;9.886;2023-05-21T11:21:27;101136.34;;;23.31;64.18
13952;BME280;39535;52.192;9.886;2023-05-21T11:23:57;101156.22;;;23.54;63.05
13952;BME280;39535;52.192;9.886;2023-05-21T11:26:26;101141.78;;;23.73;63.58
13952;BME280;39535;52.192;9.886;2023-05-21T11:29:05;101166.22;;;24.08;61.51
13952;BME280;39535;52.192;9.886;2023-05-21T11:31:34;101182.69;;;24.56;62.22
13952;BME280;39535;52.192;9.886;2023-05-21T11:34:12;101239.34;;;25.54;58.81
13952;BME280;39535;52.192;9.886;2023-05-21T11:36:40;101302.72;;;26.55;56.07
13952;BME280;39535;52.192;9.886;2023-05-21T11:39:07;101398.84;;;27.58;51.88
13952;BME280;39535;52.192;9.886;2023-05-21T11:41:49;101491.25;;;28.48;49.61
13952;BME280;39535;52.192;9.886;2023-05-21T11:44:15;101556.28;;;28.87;47.18
13952;BME280;39535;52.192;9.886;2023-05-21T11:46:43;101611.97;;;29.32;46.16
13952;BME280;39535;52.192;9.886;2023-05-21T11:49:11;101637.88;;;29.56;45.06
13952;BME280;39535;52.192;9.886;2023-05-21T11:51:39;101668.22;;;29.92;44.07
13952;BME280;39535;52.192;9.886;2023-05-21T11:54:07;101695.38;;;30.55;43.27
13952;BME280;39535;52.192;9.886;2023-05-21T11:56:35;101715.47;;;31.04;42.55
13952;BME280;39535;52.192;9.886;2023-05-21T11:59:12;101725.19;;;31.37;40.89
13952;BME280;39535;52.192;9.886;2023-05-21T12:01:41;101749.25;;;31.40;40.96
13952;BME280;39535;52.192;9.886;2023-05-21T12:04:08;101748.78;;;31.56;40.71
13952;BME280;39535;52.192;9.886;2023-05-21T12:06:36;101730.22;;;31.42;42.07
13952;BME280;39535;52.192;9.886;2023-05-21T12:09:02;101688.19;;;31.18;41.11
13952;BME280;39535;52.192;9.886;2023-05-21T12:11:29;101676.09;;;30.92;41.95
13952;BME280;39535;52.192;9.886;2023-05-21T12:13:55;101669.66;;;30.72;42.69
13952;BME280;39535;52.192;9.886;2023-05-21T12:16:22;101629.28;;;30.60;42.14
13952;BME280;39535;52.192;9.886;2023-05-21T12:18:49;101618.19;;;30.54;42.57
13952;BME280;39535;52.192;9.886;2023-05-21T12:21:17;101561.66;;;30.42;44.32
13952;BME280;39535;52.192;9.886;2023-05-21T12:23:43;101538.94;;;30.35;42.42
13952;BME280;39535;52.192;9.886;2023-05-21T12:26:10;101570.03;;;30.28;42.45
13952;BME280;39535;52.192;9.886;2023-05-21T12:28:38;101582.91;;;30.24;42.60
13952;BME280;39535;52.192;9.886;2023-05-21T12:31:04;101560.72;;;30.00;43.08
13952;BME280;39535;52.192;9.886;2023-05-21T12:33:33;101552.22;;;29.83;43.64
13952;BME280;39535;52.192;9.886;2023-05-21T12:35:59;101539.50;;;29.63;44.09
13952;BME280;39535;52.192;9.886;2023-05-21T12:38:30;101454.75;;;29.57;45.86
13952;BME280;39535;52.192;9.886;2023-05-21T12:41:02;101473.38;;;29.49;45.33
13952;BME280;39535;52.192;9.886;2023-05-21T12:43:30;101464.34;;;29.50;43.87
13952;BME280;39535;52.192;9.886;2023-05-21T12:45:56;101482.25;;;29.28;44.91
13952;BME280;39535;52.192;9.886;2023-05-21T12:48:23;101469.41;;;29.09;45.02
13952;BME280;39535;52.192;9.886;2023-05-21T12:50:50;101476.88;;;28.72;45.13
13952;BME280;39535;52.192;9.886;2023-05-21T12:53:17;101464.75;;;28.32;45.37